sensor_id;sensor_type;location;lat;lon;timestamp;pressure;altitude;pressure_sealevel;temperature;humidity
79686;BME280;69153;47.918;11.428;2023-08-21T00:01:29;95685.53;;;22.85;53.66
79686;BME280;69153;47.918;11.428;2023-08-21T00:03:55;95690.19;;;22.84;53.64
79686;BME280;69153;47.918;11.428;2023-08-21T00:06:21;95685.75;;;22.81;53.60
79686;BME280;69153;47.918;11.428;2023-08-21T00:08:47;95681.81;;;22.82;54.02
79686;BME280;69153;47.918;11.428;2023-08-21T00:11:12;95684.25;;;22.80;53.67
79686;BME280;69153;47.918;11.428;2023-08-21T00:13:38;95682.25;;;22.75;54.11
79686;BME280;69153;47.918;11.428;2023-08-21T00:16:03;95688.66;;;22.77;53.99
79686;BME280;69153;47.918;11.428;2023-08-21T00:18:29;95687.72;;;22.80;54.01
79686;BME280;69153;47.918;11.428;2023-08-21T00:20:54;95687.94;;;22.77;53.77
79686;BME280;69153;47.918;11.428;2023-08-21T00:23:19;95686.44;;;22.76;54.13
79686;BME280;69153;47.918;11.428;2023-08-21T00:25:47;95684.19;;;22.74;54.07
79686;BME280;69153;47.918;11.428;2023-08-21T00:28:13;95684.69;;;22.73;54.12
79686;BME280;69153;47.918;11.428;2023-08-21T00:30:39;95686.09;;;22.63;54.46
79686;BME280;69153;47.918;11.428;2023-08-21T00:33:04;95686.09;;;22.63;54.26
79686;BME280;69153;47.918;11.428;2023-08-21T00:35:30;95681.44;;;22.63;54.04
79686;BME280;69153;47.918;11.428;2023-08-21T00:37:55;95676.50;;;22.56;54.29
79686;BME280;69153;47.918;11.428;2023-08-21T00:40:21;95676.50;;;22.56;53.99
79686;BME280;69153;47.918;11.428;2023-08-21T00:42:46;95677.22;;;22.51;53.91
79686;BME280;69153;47.918;11.428;2023-08-21T00:45:12;95676.47;;;22.45;54.12
79686;BME280;69153;47.918;11.428;2023-08-21T00:47:38;95680.88;;;22.48;53.77
79686;BME280;69153;47.918;11.428;2023-08-21T00:50:06;95678.16;;;22.48;53.98
79686;BME280;69153;47.918;11.428;2023-08-21T00:52:35;95678.16;;;22.48;54.06
79686;BME280;69153;47.918;11.428;2023-08-21T00:55:01;95675.47;;;22.48;53.72
79686;BME280;69153;47.918;11.428;2023-08-21T00:57:28;95676.66;;;22.41;53.94
79686;BME280;69153;47.918;11.428;2023-08-21T00:59:54;95677.84;;;22.35;54.27
79686;BME280;69153;47.918;11.428;2023-08-21T01:02:20;95669.25;;;22.36;54.23
79686;BME280;69153;47.918;11.428;2023-08-21T01:04:45;95669.75;;;22.35;53.87
79686;BME280;69153;47.918;11.428;2023-08-21T01:07:11;95679.56;;;22.32;54.15
79686;BME280;69153;47.918;11.428;2023-08-21T01:09:49;95675.59;;;22.28;54.00
79686;BME280;69153;47.918;11.428;2023-08-21T01:12:41;95674.56;;;22.20;54.13
79686;BME280;69153;47.918;11.428;2023-08-21T01:15:10;95671.34;;;22.16;54.26
79686;BME280;69153;47.918;11.428;2023-08-21T01:17:37;95675.00;;;22.13;54.32
79686;BME280;69153;47.918;11.428;2023-08-21T01:20:06;95668.34;;;22.08;54.99
79686;BME280;69153;47.918;11.428;2023-08-21T01:22:39;95668.84;;;22.06;54.79
79686;BME280;69153;47.918;11.428;2023-08-21T01:25:05;95673.72;;;22.02;55.17
79686;BME280;69153;47.918;11.428;2023-08-21T01:27:32;95677.88;;;22.03;55.05
79686;BME280;69153;47.918;11.428;2023-08-21T01:29:58;95673.97;;;22.04;54.78
79686;BME280;69153;47.918;11.428;2023-08-21T01:35:02;95676.16;;;22.00;55.18
79686;BME280;69153;47.918;11.428;2023-08-21T01:37:30;95671.28;;;22.04;55.06
79686;BME280;69153;47.918;11.428;2023-08-21T01:39:58;95672.22;;;22.01;54.80
79686;BME280;69153;47.918;11.428;2023-08-21T01:42:24;95674.94;;;22.01;54.50
79686;BME280;69153;47.918;11.428;2023-08-21T01:44:49;95667.72;;;21.93;54.34
79686;BME280;69153;47.918;11.428;2023-08-21T01:47:15;95667.94;;;21.89;54.18
79686;BME280;69153;47.918;11.428;2023-08-21T01:49:42;95670.66;;;21.95;53.82
79686;BME280;69153;47.918;11.428;2023-08-21T01:52:07;95671.38;;;21.90;53.94
79686;BME280;69153;47.918;11.428;2023-08-21T01:54:33;95670.91;;;21.91;53.88
79686;BME280;69153;47.918;11.428;2023-08-21T01:56:58;95670.91;;;21.91;54.13
79686;BME280;69153;47.918;11.428;2023-08-21T01:59:24;95665.66;;;21.82;54.15
79686;BME280;69153;47.918;11.428;2023-08-21T02:01:50;95666.16;;;21.81;54.46
79686;BME280;69153;47.918;11.428;2023-08-21T02:04:15;95665.84;;;21.73;54.31
79686;BME280;69153;47.918;11.428;2023-08-21T02:06:41;95668.53;;;21.73;54.35
79686;BME280;69153;47.918;11.428;2023-08-21T02:09:09;95667.53;;;21.70;54.61
79686;BME280;69153;47.918;11.428;2023-08-21T02:11:35;95678.31;;;21.70;54.72
79686;BME280;69153;47.918;11.428;2023-08-21T02:14:01;95674.63;;;21.68;54.77
79686;BME280;69153;47.918;11.428;2023-08-21T02:16:26;95669.66;;;21.61;54.86
79686;BME280;69153;47.918;11.428;2023-08-21T02:18:52;95670.41;;;21.61;55.17
79686;BME280;69153;47.918;11.428;2023-08-21T02:21:17;95668.25;;;21.65;54.86
79686;BME280;69153;47.918;11.428;2023-08-21T02:23:43;95671.06;;;21.56;54.84
79686;BME280;69153;47.918;11.428;2023-08-21T02:26:08;95665.94;;;21.58;55.25
79686;BME280;69153;47.918;11.428;2023-08-21T02:28:33;95661.56;;;21.61;55.01
79686;BME280;69153;47.918;11.428;2023-08-21T02:30:59;95658.66;;;21.64;55.01
79686;BME280;69153;47.918;11.428;2023-08-21T02:33:24;95656.19;;;21.61;54.75
79686;BME280;69153;47.918;11.428;2023-08-21T02:35:50;95664.94;;;21.56;54.65
79686;BME280;69153;47.918;11.428;2023-08-21T02:38:16;95661.03;;;21.57;54.58
79686;BME280;69153;47.918;11.428;2023-08-21T02:40:42;95661.28;;;21.53;54.45
79686;BME280;69153;47.918;11.428;2023-08-21T02:43:07;95662.50;;;21.58;54.04
79686;BME280;69153;47.918;11.428;2023-08-21T02:45:33;95662.25;;;21.56;54.05
79686;BME280;69153;47.918;11.428;2023-08-21T02:47:58;95661.75;;;21.52;54.44
79686;BME280;69153;47.918;11.428;2023-08-21T02:50:24;95658.56;;;21.53;54.19
79686;BME280;69153;47.918;11.428;2023-08-21T02:53:04;95667.53;;;21.45;54.44
79686;BME280;69153;47.918;11.428;2023-08-21T02:55:30;95669.19;;;21.36;54.35
79686;BME280;69153;47.918;11.428;2023-08-21T02:57:55;95671.34;;;21.32;55.01
79686;BME280;69153;47.918;11.428;2023-08-21T03:00:21;95671.56;;;21.29;54.69
79686;BME280;69153;47.918;11.428;2023-08-21T03:02:46;95668.06;;;21.23;54.99
79686;BME280;69153;47.918;11.428;2023-08-21T03:05:12;95673.47;;;21.23;55.10
79686;BME280;69153;47.918;11.428;2023-08-21T03:07:38;95677.53;;;21.18;55.07
79686;BME280;69153;47.918;11.428;2023-08-21T03:10:05;95671.63;;;21.14;55.35
79686;BME280;69153;47.918;11.428;2023-08-21T03:12:30;95675.94;;;21.06;55.76
79686;BME280;69153;47.918;11.428;2023-08-21T03:14:56;95680.13;;;21.07;55.89
79686;BME280;69153;47.918;11.428;2023-08-21T03:17:21;95676.94;;;21.09;56.10
79686;BME280;69153;47.918;11.428;2023-08-21T03:19:47;95671.28;;;21.07;55.97
79686;BME280;69153;47.918;11.428;2023-08-21T03:22:12;95678.63;;;21.06;56.05
79686;BME280;69153;47.918;11.428;2023-08-21T03:24:39;95673.94;;;21.01;56.46
79686;BME280;69153;47.918;11.428;2023-08-21T03:27:04;95667.81;;;21.00;56.19
79686;BME280;69153;47.918;11.428;2023-08-21T03:29:30;95666.38;;;21.05;56.70
79686;BME280;69153;47.918;11.428;2023-08-21T03:31:56;95667.84;;;21.06;56.59
79686;BME280;69153;47.918;11.428;2023-08-21T03:34:21;95670.28;;;21.04;56.57
79686;BME280;69153;47.918;11.428;2023-08-21T03:36:48;95678.13;;;21.02;56.77
79686;BME280;69153;47.918;11.428;2023-08-21T03:39:14;95673.47;;;21.02;56.68
79686;BME280;69153;47.918;11.428;2023-08-21T03:41:39;95684.25;;;21.02;56.81
79686;BME280;69153;47.918;11.428;2023-08-21T03:44:05;95677.41;;;21.07;56.92
79686;BME280;69153;47.918;11.428;2023-08-21T03:46:30;95678.50;;;20.95;57.12
79686;BME280;69153;47.918;11.428;2023-08-21T03:48:56;95682.41;;;20.94;57.11
79686;BME280;69153;47.918;11.428;2023-08-21T03:51:22;95683.97;;;21.00;57.12
79686;BME280;69153;47.918;11.428;2023-08-21T03:53:47;95679.53;;;20.97;57.00
79686;BME280;69153;47.918;11.428;2023-08-21T03:56:13;95684.81;;;20.92;57.12
79686;BME280;69153;47.918;11.428;2023-08-21T03:58:38;95684.16;;;20.97;56.80
79686;BME280;69153;47.918;11.428;2023-08-21T04:01:03;95684.72;;;21.01;56.27
79686;BME280;69153;47.918;11.428;2023-08-21T04:03:29;95685.66;;;20.98;56.59
79686;BME280;69153;47.918;11.428;2023-08-21T04:05:55;95688.34;;;20.98;56.19
79686;BME280;69153;47.918;11.428;2023-08-21T04:08:22;95690.09;;;21.01;55.73
79686;BME280;69153;47.918;11.428;2023-08-21T04:10:47;95702.19;;;20.91;55.87
79686;BME280;69153;47.918;11.428;2023-08-21T04:13:13;95692.13;;;20.86;55.63
79686;BME280;69153;47.918;11.428;2023-08-21T04:15:38;95708.28;;;20.86;55.35
79686;BME280;69153;47.918;11.428;2023-08-21T04:18:04;95701.59;;;20.81;55.53
79686;BME280;69153;47.918;11.428;2023-08-21T04:20:30;95715.47;;;20.74;55.65
79686;BME280;69153;47.918;11.428;2023-08-21T04:22:56;95713.53;;;20.75;55.34
79686;BME280;69153;47.918;11.428;2023-08-21T04:25:21;95715.19;;;20.72;55.68
79686;BME280;69153;47.918;11.428;2023-08-21T04:27:47;95707.41;;;20.74;55.18
79686;BME280;69153;47.918;11.428;2023-08-21T04:30:13;95714.66;;;20.68;55.60
79686;BME280;69153;47.918;11.428;2023-08-21T04:32:38;95708.59;;;20.73;55.58
79686;BME280;69153;47.918;11.428;2023-08-21T04:35:04;95709.53;;;20.70;55.28
79686;BME280;69153;47.918;11.428;2023-08-21T04:37:32;95708.66;;;20.58;55.84
79686;BME280;69153;47.918;11.428;2023-08-21T04:39:57;95708.88;;;20.25;56.58
79686;BME280;69153;47.918;11.428;2023-08-21T04:42:22;95710.28;;;20.21;57.21
79686;BME280;69153;47.918;11.428;2023-08-21T04:44:48;95715.09;;;20.31;56.92
79686;BME280;69153;47.918;11.428;2023-08-21T04:47:25;95712.88;;;20.45;56.88
79686;BME280;69153;47.918;11.428;2023-08-21T04:49:54;95720.34;;;20.55;56.75
79686;BME280;69153;47.918;11.428;2023-08-21T04:52:20;95712.66;;;20.63;56.38
79686;BME280;69153;47.918;11.428;2023-08-21T04:54:47;95717.16;;;20.72;56.54
79686;BME280;69153;47.918;11.428;2023-08-21T04:57:13;95716.97;;;20.75;56.14
79686;BME280;69153;47.918;11.428;2023-08-21T04:59:39;95728.53;;;20.81;56.19
79686;BME280;69153;47.918;11.428;2023-08-21T05:02:04;95723.22;;;20.87;56.16
79686;BME280;69153;47.918;11.428;2023-08-21T05:04:30;95726.34;;;21.00;56.24
79686;BME280;69153;47.918;11.428;2023-08-21T05:06:55;95725.31;;;20.97;56.52
79686;BME280;69153;47.918;11.428;2023-08-21T05:09:21;95729.50;;;20.98;56.50
79686;BME280;69153;47.918;11.428;2023-08-21T05:11:46;95723.41;;;21.03;56.94
79686;BME280;69153;47.918;11.428;2023-08-21T05:14:11;95731.13;;;21.11;57.03
79686;BME280;69153;47.918;11.428;2023-08-21T05:16:37;95732.94;;;21.19;56.73
79686;BME280;69153;47.918;11.428;2023-08-21T05:19:02;95733.75;;;21.25;57.33
79686;BME280;69153;47.918;11.428;2023-08-21T05:21:29;95735.03;;;21.30;58.20
79686;BME280;69153;47.918;11.428;2023-08-21T05:23:55;95739.00;;;21.34;57.22
79686;BME280;69153;47.918;11.428;2023-08-21T05:26:20;95738.06;;;21.37;56.36
79686;BME280;69153;47.918;11.428;2023-08-21T05:28:46;95737.63;;;21.45;55.98
79686;BME280;69153;47.918;11.428;2023-08-21T05:31:11;95737.75;;;21.56;55.95
79686;BME280;69153;47.918;11.428;2023-08-21T05:33:37;95734.84;;;21.59;55.92
79686;BME280;69153;47.918;11.428;2023-08-21T05:36:02;95734.66;;;21.63;55.98
79686;BME280;69153;47.918;11.428;2023-08-21T05:38:28;95733.72;;;21.66;56.34
79686;BME280;69153;47.918;11.428;2023-08-21T05:40:53;95740.34;;;21.70;56.85
79686;BME280;69153;47.918;11.428;2023-08-21T05:43:19;95739.47;;;21.79;56.74
79686;BME280;69153;47.918;11.428;2023-08-21T05:45:44;95742.22;;;21.85;56.91
79686;BME280;69153;47.918;11.428;2023-08-21T05:48:10;95742.06;;;21.94;56.84
79686;BME280;69153;47.918;11.428;2023-08-21T05:50:35;95748.72;;;21.98;56.59
79686;BME280;69153;47.918;11.428;2023-08-21T05:53:03;95746.56;;;22.02;57.33
79686;BME280;69153;47.918;11.428;2023-08-21T05:55:29;95752.53;;;22.12;56.74
79686;BME280;69153;47.918;11.428;2023-08-21T05:57:54;95748.69;;;22.19;56.76
79686;BME280;69153;47.918;11.428;2023-08-21T06:00:20;95748.75;;;22.30;56.95
79686;BME280;69153;47.918;11.428;2023-08-21T06:02:45;95751.06;;;22.42;56.75
79686;BME280;69153;47.918;11.428;2023-08-21T06:05:11;95748.91;;;22.52;56.96
79686;BME280;69153;47.918;11.428;2023-08-21T06:07:36;95749.94;;;22.60;56.89
79686;BME280;69153;47.918;11.428;2023-08-21T06:10:02;95746.59;;;22.71;56.33
79686;BME280;69153;47.918;11.428;2023-08-21T06:12:28;95754.25;;;22.78;56.05
79686;BME280;69153;47.918;11.428;2023-08-21T06:14:53;95756.50;;;22.85;55.98
79686;BME280;69153;47.918;11.428;2023-08-21T06:17:19;95754.56;;;22.91;56.54
79686;BME280;69153;47.918;11.428;2023-08-21T06:19:44;95761.72;;;23.00;56.86
79686;BME280;69153;47.918;11.428;2023-08-21T06:22:10;95751.69;;;23.06;56.47
79686;BME280;69153;47.918;11.428;2023-08-21T06:24:35;95750.75;;;23.09;55.04
79686;BME280;69153;47.918;11.428;2023-08-21T06:27:01;95756.16;;;23.09;55.22
79686;BME280;69153;47.918;11.428;2023-08-21T06:29:27;95750.88;;;22.89;55.16
79686;BME280;69153;47.918;11.428;2023-08-21T06:31:53;95754.31;;;22.89;55.77
79686;BME280;69153;47.918;11.428;2023-08-21T06:34:18;95758.84;;;23.14;54.96
79686;BME280;69153;47.918;11.428;2023-08-21T06:36:44;95756.63;;;23.07;54.71
79686;BME280;69153;47.918;11.428;2023-08-21T06:39:09;95749.78;;;23.17;54.64
79686;BME280;69153;47.918;11.428;2023-08-21T06:41:34;95758.00;;;23.45;53.56
79686;BME280;69153;47.918;11.428;2023-08-21T06:44:00;95755.03;;;23.43;53.17
79686;BME280;69153;47.918;11.428;2023-08-21T06:46:25;95753.56;;;23.42;54.10
79686;BME280;69153;47.918;11.428;2023-08-21T06:48:52;95747.91;;;23.46;54.02
79686;BME280;69153;47.918;11.428;2023-08-21T06:51:18;95751.34;;;23.35;53.59
79686;BME280;69153;47.918;11.428;2023-08-21T06:53:43;95754.72;;;23.19;54.89
79686;BME280;69153;47.918;11.428;2023-08-21T06:56:09;95756.25;;;23.42;54.44
79686;BME280;69153;47.918;11.428;2023-08-21T06:58:34;95764.97;;;23.69;53.48
79686;BME280;69153;47.918;11.428;2023-08-21T07:01:00;95757.13;;;23.82;53.18
79686;BME280;69153;47.918;11.428;2023-08-21T07:03:26;95756.88;;;23.80;53.70
79686;BME280;69153;47.918;11.428;2023-08-21T07:05:56;95757.16;;;23.88;53.69
79686;BME280;69153;47.918;11.428;2023-08-21T07:08:23;95761.13;;;24.14;53.69
79686;BME280;69153;47.918;11.428;2023-08-21T07:10:48;95761.88;;;24.32;53.29
79686;BME280;69153;47.918;11.428;2023-08-21T07:13:14;95768.25;;;24.45;53.01
79686;BME280;69153;47.918;11.428;2023-08-21T07:15:39;95763.09;;;24.42;54.30
79686;BME280;69153;47.918;11.428;2023-08-21T07:18:05;95764.31;;;24.46;53.22
79686;BME280;69153;47.918;11.428;2023-08-21T07:20:31;95762.81;;;24.73;52.13
79686;BME280;69153;47.918;11.428;2023-08-21T07:22:56;95765.28;;;24.71;52.77
79686;BME280;69153;47.918;11.428;2023-08-21T07:25:21;95769.47;;;24.72;52.92
79686;BME280;69153;47.918;11.428;2023-08-21T07:27:47;95764.75;;;24.84;52.03
79686;BME280;69153;47.918;11.428;2023-08-21T07:30:13;95762.28;;;24.86;52.46
79686;BME280;69153;47.918;11.428;2023-08-21T07:32:38;95765.03;;;24.75;53.76
79686;BME280;69153;47.918;11.428;2023-08-21T07:35:04;95769.94;;;24.99;52.43
79686;BME280;69153;47.918;11.428;2023-08-21T07:37:30;95763.75;;;24.98;52.49
79686;BME280;69153;47.918;11.428;2023-08-21T07:39:56;95769.84;;;25.21;52.05
79686;BME280;69153;47.918;11.428;2023-08-21T07:42:23;95765.66;;;25.25;50.76
79686;BME280;69153;47.918;11.428;2023-08-21T07:44:48;95769.44;;;25.58;51.66
79686;BME280;69153;47.918;11.428;2023-08-21T07:47:14;95758.34;;;25.67;50.52
79686;BME280;69153;47.918;11.428;2023-08-21T07:49:39;95766.06;;;25.93;50.82
79686;BME280;69153;47.918;11.428;2023-08-21T07:52:05;95759.56;;;26.07;49.68
79686;BME280;69153;47.918;11.428;2023-08-21T07:54:30;95758.03;;;26.12;49.01
79686;BME280;69153;47.918;11.428;2023-08-21T07:56:56;95757.75;;;26.15;48.86
79686;BME280;69153;47.918;11.428;2023-08-21T07:59:21;95761.72;;;26.14;49.24
79686;BME280;69153;47.918;11.428;2023-08-21T08:01:47;95750.19;;;26.38;47.85
79686;BME280;69153;47.918;11.428;2023-08-21T08:04:13;95757.94;;;26.58;48.61
79686;BME280;69153;47.918;11.428;2023-08-21T08:06:38;95756.19;;;26.61;47.49
79686;BME280;69153;47.918;11.428;2023-08-21T08:09:04;95754.13;;;26.67;47.63
79686;BME280;69153;47.918;11.428;2023-08-21T08:11:29;95752.31;;;26.75;47.02
79686;BME280;69153;47.918;11.428;2023-08-21T08:13:55;95754.63;;;26.95;46.64
79686;BME280;69153;47.918;11.428;2023-08-21T08:16:21;95760.53;;;26.99;46.45
79686;BME280;69153;47.918;11.428;2023-08-21T08:18:46;95756.47;;;27.06;46.50
79686;BME280;69153;47.918;11.428;2023-08-21T08:21:12;95758.63;;;27.13;46.44
79686;BME280;69153;47.918;11.428;2023-08-21T08:23:37;95756.44;;;27.30;46.12
79686;BME280;69153;47.918;11.428;2023-08-21T08:26:03;95763.59;;;27.52;45.09
79686;BME280;69153;47.918;11.428;2023-08-21T08:28:28;95768.63;;;27.67;45.34
79686;BME280;69153;47.918;11.428;2023-08-21T08:30:54;95759.91;;;27.50;46.65
79686;BME280;69153;47.918;11.428;2023-08-21T08:33:20;95767.00;;;27.58;45.81
79686;BME280;69153;47.918;11.428;2023-08-21T08:35:45;95768.69;;;27.80;45.85
79686;BME280;69153;47.918;11.428;2023-08-21T08:38:11;95765.34;;;28.06;45.43
79686;BME280;69153;47.918;11.428;2023-08-21T08:40:43;95769.47;;;28.13;44.18
79686;BME280;69153;47.918;11.428;2023-08-21T08:43:11;95764.75;;;28.13;43.62
79686;BME280;69153;47.918;11.428;2023-08-21T08:45:36;95765.03;;;28.09;44.49
79686;BME280;69153;47.918;11.428;2023-08-21T08:48:04;95770.13;;;28.51;44.46
79686;BME280;69153;47.918;11.428;2023-08-21T08:50:31;95766.75;;;28.44;43.60
79686;BME280;69153;47.918;11.428;2023-08-21T08:52:58;95765.28;;;28.57;43.01
79686;BME280;69153;47.918;11.428;2023-08-21T08:55:25;95766.03;;;28.57;42.99
79686;BME280;69153;47.918;11.428;2023-08-21T08:57:51;95766.38;;;28.67;43.21
79686;BME280;69153;47.918;11.428;2023-08-21T09:00:18;95761.84;;;28.69;42.03
79686;BME280;69153;47.918;11.428;2023-08-21T09:02:45;95764.47;;;28.62;42.25
79686;BME280;69153;47.918;11.428;2023-08-21T09:05:10;95767.16;;;28.81;41.29
79686;BME280;69153;47.918;11.428;2023-08-21T09:07:36;95766.09;;;29.10;41.58
79686;BME280;69153;47.918;11.428;2023-08-21T09:10:01;95759.16;;;29.09;40.54
79686;BME280;69153;47.918;11.428;2023-08-21T09:12:31;95761.47;;;29.31;39.81
79686;BME280;69153;47.918;11.428;2023-08-21T09:14:58;95760.84;;;29.25;39.61
79686;BME280;69153;47.918;11.428;2023-08-21T09:17:24;95752.94;;;29.35;38.29
79686;BME280;69153;47.918;11.428;2023-08-21T09:19:49;95759.56;;;29.53;37.65
79686;BME280;69153;47.918;11.428;2023-08-21T09:22:16;95761.63;;;29.73;37.56
79686;BME280;69153;47.918;11.428;2023-08-21T09:25:18;95762.16;;;30.26;37.03
79686;BME280;69153;47.918;11.428;2023-08-21T09:27:44;95760.25;;;30.55;36.95
79686;BME280;69153;47.918;11.428;2023-08-21T09:30:10;95760.81;;;30.82;34.60
79686;BME280;69153;47.918;11.428;2023-08-21T09:32:53;95756.59;;;30.81;35.78
79686;BME280;69153;47.918;11.428;2023-08-21T09:35:20;95758.41;;;30.78;32.43
79686;BME280;69153;47.918;11.428;2023-08-21T09:37:47;95758.84;;;30.90;32.29
79686;BME280;69153;47.918;11.428;2023-08-21T09:40:12;95743.78;;;31.33;30.52
79686;BME280;69153;47.918;11.428;2023-08-21T09:42:39;95745.50;;;31.51;32.81
79686;BME280;69153;47.918;11.428;2023-08-21T09:45:05;95746.56;;;31.48;32.02
79686;BME280;69153;47.918;11.428;2023-08-21T09:47:31;95744.03;;;31.50;31.53
79686;BME280;69153;47.918;11.428;2023-08-21T09:49:59;95748.63;;;31.63;29.47
79686;BME280;69153;47.918;11.428;2023-08-21T09:52:25;95746.78;;;31.57;32.00
79686;BME280;69153;47.918;11.428;2023-08-21T09:54:55;95736.69;;;32.04;31.58
79686;BME280;69153;47.918;11.428;2023-08-21T09:57:22;95745.34;;;32.46;32.92
79686;BME280;69153;47.918;11.428;2023-08-21T09:59:53;95729.78;;;32.63;30.19
79686;BME280;69153;47.918;11.428;2023-08-21T10:02:21;95735.66;;;32.45;32.68
79686;BME280;69153;47.918;11.428;2023-08-21T10:04:48;95728.13;;;32.91;30.05
79686;BME280;69153;47.918;11.428;2023-08-21T10:07:16;95725.72;;;32.95;32.04
79686;BME280;69153;47.918;11.428;2023-08-21T10:09:44;95733.94;;;33.03;31.72
79686;BME280;69153;47.918;11.428;2023-08-21T10:12:14;95727.50;;;33.15;31.71
79686;BME280;69153;47.918;11.428;2023-08-21T10:14:42;95726.31;;;33.49;30.71
79686;BME280;69153;47.918;11.428;2023-08-21T10:17:09;95723.81;;;33.35;29.43
79686;BME280;69153;47.918;11.428;2023-08-21T10:19:35;95726.13;;;33.47;29.59
79686;BME280;69153;47.918;11.428;2023-08-21T10:22:00;95731.13;;;33.73;29.85
79686;BME280;69153;47.918;11.428;2023-08-21T10:24:37;95723.84;;;33.13;29.18
79686;BME280;69153;47.918;11.428;2023-08-21T10:27:03;95717.28;;;33.08;29.52
79686;BME280;69153;47.918;11.428;2023-08-21T10:29:29;95721.91;;;32.83;28.69
79686;BME280;69153;47.918;11.428;2023-08-21T10:32:04;95716.44;;;32.83;29.25
79686;BME280;69153;47.918;11.428;2023-08-21T10:34:37;95718.91;;;33.59;29.00
79686;BME280;69153;47.918;11.428;2023-08-21T10:37:10;95717.47;;;34.15;28.35
79686;BME280;69153;47.918;11.428;2023-08-21T10:39:38;95715.63;;;34.42;25.91
79686;BME280;69153;47.918;11.428;2023-08-21T10:42:05;95718.25;;;34.40;25.37
79686;BME280;69153;47.918;11.428;2023-08-21T10:44:37;95726.69;;;34.60;24.63
79686;BME280;69153;47.918;11.428;2023-08-21T10:47:22;95717.56;;;34.74;22.40
79686;BME280;69153;47.918;11.428;2023-08-21T10:49:51;95709.16;;;35.07;21.61
79686;BME280;69153;47.918;11.428;2023-08-21T10:52:40;95709.31;;;35.43;21.47
79686;BME280;69153;47.918;11.428;2023-08-21T10:55:08;95707.22;;;35.78;21.94
79686;BME280;69153;47.918;11.428;2023-08-21T10:57:36;95703.34;;;35.91;23.24
79686;BME280;69153;47.918;11.428;2023-08-21T11:00:05;95708.81;;;36.08;22.91
79686;BME280;69153;47.918;11.428;2023-08-21T11:02:39;95713.16;;;36.11;22.56
79686;BME280;69153;47.918;11.428;2023-08-21T11:05:07;95705.44;;;36.10;23.19
79686;BME280;69153;47.918;11.428;2023-08-21T11:07:44;95714.50;;;36.20;23.36
79686;BME280;69153;47.918;11.428;2023-08-21T11:10:14;95705.88;;;36.06;22.51
79686;BME280;69153;47.918;11.428;2023-08-21T11:12:54;95707.16;;;36.32;22.84
79686;BME280;69153;47.918;11.428;2023-08-21T11:15:26;95708.66;;;36.62;22.43
79686;BME280;69153;47.918;11.428;2023-08-21T11:18:00;95713.97;;;36.87;21.86
79686;BME280;69153;47.918;11.428;2023-08-21T11:20:34;95708.59;;;37.08;22.90
79686;BME280;69153;47.918;11.428;2023-08-21T11:23:05;95708.88;;;37.03;23.01
79686;BME280;69153;47.918;11.428;2023-08-21T11:25:38;95707.00;;;36.86;23.84
79686;BME280;69153;47.918;11.428;2023-08-21T11:28:05;95704.31;;;36.59;23.17
79686;BME280;69153;47.918;11.428;2023-08-21T11:30:31;95701.97;;;36.46;23.57
79686;BME280;69153;47.918;11.428;2023-08-21T11:33:06;95705.66;;;36.22;23.50
79686;BME280;69153;47.918;11.428;2023-08-21T11:35:32;95701.34;;;36.01;24.04
79686;BME280;69153;47.918;11.428;2023-08-21T11:37:57;95692.84;;;36.16;24.81
79686;BME280;69153;47.918;11.428;2023-08-21T11:40:23;95703.38;;;36.28;26.13
79686;BME280;69153;47.918;11.428;2023-08-21T11:42:51;95695.16;;;36.66;25.07
79686;BME280;69153;47.918;11.428;2023-08-21T11:45:20;95694.84;;;36.53;25.97
79686;BME280;69153;47.918;11.428;2023-08-21T11:47:46;95699.81;;;36.64;25.22
79686;BME280;69153;47.918;11.428;2023-08-21T11:50:14;95690.44;;;36.30;24.82
79686;BME280;69153;47.918;11.428;2023-08-21T11:52:42;95690.88;;;36.36;25.28
79686;BME280;69153;47.918;11.428;2023-08-21T11:55:09;95691.81;;;36.68;24.44
79686;BME280;69153;47.918;11.428;2023-08-21T11:57:48;95695.41;;;36.41;25.28
79686;BME280;69153;47.918;11.428;2023-08-21T12:00:14;95687.72;;;36.49;25.02
79686;BME280;69153;47.918;11.428;2023-08-21T12:02:53;95686.94;;;36.85;25.34
79686;BME280;69153;47.918;11.428;2023-08-21T12:05:19;95686.47;;;36.70;24.54
79686;BME280;69153;47.918;11.428;2023-08-21T12:07:46;95691.09;;;36.58;26.00
79686;BME280;69153;47.918;11.428;2023-08-21T12:10:13;95684.41;;;36.61;25.54
79686;BME280;69153;47.918;11.428;2023-08-21T12:12:39;95676.41;;;36.55;26.43
79686;BME280;69153;47.918;11.428;2023-08-21T12:15:05;95686.97;;;36.30;25.81
79686;BME280;69153;47.918;11.428;2023-08-21T12:17:30;95677.22;;;36.38;26.40
79686;BME280;69153;47.918;11.428;2023-08-21T12:19:56;95672.28;;;36.37;25.90
79686;BME280;69153;47.918;11.428;2023-08-21T12:22:21;95670.34;;;36.20;26.41
79686;BME280;69153;47.918;11.428;2023-08-21T12:24:47;95665.25;;;36.16;26.19
79686;BME280;69153;47.918;11.428;2023-08-21T12:27:12;95672.03;;;35.96;26.44
79686;BME280;69153;47.918;11.428;2023-08-21T12:29:37;95665.00;;;35.86;25.87
79686;BME280;69153;47.918;11.428;2023-08-21T12:32:04;95662.69;;;35.92;25.62
79686;BME280;69153;47.918;11.428;2023-08-21T12:34:30;95663.03;;;36.05;25.41
79686;BME280;69153;47.918;11.428;2023-08-21T12:36:56;95659.03;;;35.79;26.07
79686;BME280;69153;47.918;11.428;2023-08-21T12:39:22;95658.06;;;35.67;26.01
79686;BME280;69153;47.918;11.428;2023-08-21T12:41:47;95654.69;;;35.59;27.89
79686;BME280;69153;47.918;11.428;2023-08-21T12:44:14;95650.19;;;35.54;26.79
79686;BME280;69153;47.918;11.428;2023-08-21T12:46:40;95643.06;;;35.51;26.07
79686;BME280;69153;47.918;11.428;2023-08-21T12:49:06;95645.31;;;35.45;28.08
79686;BME280;69153;47.918;11.428;2023-08-21T12:51:31;95648.34;;;35.39;28.66